sensor_id;sensor_type;location;lat;lon;timestamp;pressure;altitude;pressure_sealevel;temperature;humidity
48517;BME280;34310;51.904;4.256;2024-03-07T00:00:16;102691.16;;;14.66;64.14
48517;BME280;34310;51.904;4.256;2024-03-07T00:02:47;102694.53;;;14.65;64.26
48517;BME280;34310;51.904;4.256;2024-03-07T00:05:24;102695.19;;;14.63;64.21
48517;BME280;34310;51.904;4.256;2024-03-07T00:07:52;102700.66;;;14.66;64.25
48517;BME280;34310;51.904;4.256;2024-03-07T00:10:19;102698.81;;;14.65;64.19
48517;BME280;34310;51.904;4.256;2024-03-07T00:12:46;102700.38;;;14.63;64.26
48517;BME280;34310;51.904;4.256;2024-03-07T00:15:13;102705.59;;;14.63;64.08
48517;BME280;34310;51.904;4.256;2024-03-07T00:17:41;102713.38;;;14.63;64.24
48517;BME280;34310;51.904;4.256;2024-03-07T00:20:08;102706.38;;;14.62;64.30
48517;BME280;34310;51.904;4.256;2024-03-07T00:22:36;102702.84;;;14.61;64.23
48517;BME280;34310;51.904;4.256;2024-03-07T00:25:03;102702.59;;;14.58;64.31
48517;BME280;34310;51.904;4.256;2024-03-07T00:27:31;102702.72;;;14.60;64.31
48517;BME280;34310;51.904;4.256;2024-03-07T00:29:58;102700.91;;;14.59;64.34
48517;BME280;34310;51.904;4.256;2024-03-07T00:32:25;102707.81;;;14.58;64.30
48517;BME280;34310;51.904;4.256;2024-03-07T00:34:52;102711.19;;;14.57;64.41
48517;BME280;34310;51.904;4.256;2024-03-07T00:37:18;102703.25;;;14.55;64.39
48517;BME280;34310;51.904;4.256;2024-03-07T00:39:45;102703.91;;;14.53;64.25
48517;BME280;34310;51.904;4.256;2024-03-07T00:42:11;102697.81;;;14.52;64.29
48517;BME280;34310;51.904;4.256;2024-03-07T00:44:38;102700.53;;;14.54;64.21
48517;BME280;34310;51.904;4.256;2024-03-07T00:47:05;102688.97;;;14.50;64.15
48517;BME280;34310;51.904;4.256;2024-03-07T00:49:31;102703.91;;;14.53;64.34
48517;BME280;34310;51.904;4.256;2024-03-07T00:51:58;102694.31;;;14.52;64.45
48517;BME280;34310;51.904;4.256;2024-03-07T00:54:25;102695.09;;;14.51;64.32
48517;BME280;34310;51.904;4.256;2024-03-07T00:56:52;102694.16;;;14.50;64.33
48517;BME280;34310;51.904;4.256;2024-03-07T00:59:19;102699.25;;;14.49;64.37
48517;BME280;34310;51.904;4.256;2024-03-07T01:01:45;102694.81;;;14.48;64.36
48517;BME280;34310;51.904;4.256;2024-03-07T01:04:12;102680.63;;;14.44;64.46
48517;BME280;34310;51.904;4.256;2024-03-07T01:06:38;102699.13;;;14.47;64.36
48517;BME280;34310;51.904;4.256;2024-03-07T01:09:05;102686.59;;;14.43;64.33
48517;BME280;34310;51.904;4.256;2024-03-07T01:11:31;102690.25;;;14.45;64.18
48517;BME280;34310;51.904;4.256;2024-03-07T01:13:58;102692.84;;;14.45;64.48
48517;BME280;34310;51.904;4.256;2024-03-07T01:16:25;102693.78;;;14.46;64.30
48517;BME280;34310;51.904;4.256;2024-03-07T01:18:51;102682.31;;;14.44;64.30
48517;BME280;34310;51.904;4.256;2024-03-07T01:21:18;102679.31;;;14.39;64.52
48517;BME280;34310;51.904;4.256;2024-03-07T01:23:44;102688.13;;;14.41;64.35
48517;BME280;34310;51.904;4.256;2024-03-07T01:26:11;102679.56;;;14.42;64.42
48517;BME280;34310;51.904;4.256;2024-03-07T01:28:38;102672.41;;;14.40;64.42
48517;BME280;34310;51.904;4.256;2024-03-07T01:31:04;102667.88;;;14.37;64.52
48517;BME280;34310;51.904;4.256;2024-03-07T01:33:31;102686.19;;;14.39;64.40
48517;BME280;34310;51.904;4.256;2024-03-07T01:35:58;102672.94;;;14.36;64.57
48517;BME280;34310;51.904;4.256;2024-03-07T01:38:24;102678.41;;;14.39;64.50
48517;BME280;34310;51.904;4.256;2024-03-07T01:40:51;102676.56;;;14.38;64.38
48517;BME280;34310;51.904;4.256;2024-03-07T01:43:17;102674.75;;;14.37;64.52
48517;BME280;34310;51.904;4.256;2024-03-07T01:45:45;102673.47;;;14.32;64.49
48517;BME280;34310;51.904;4.256;2024-03-07T01:48:19;102676.31;;;14.35;64.62
48517;BME280;34310;51.904;4.256;2024-03-07T01:50:50;102679.84;;;14.35;64.62
48517;BME280;34310;51.904;4.256;2024-03-07T01:53:17;102679.69;;;14.34;64.47
48517;BME280;34310;51.904;4.256;2024-03-07T01:55:44;102673.59;;;14.33;64.65
48517;BME280;34310;51.904;4.256;2024-03-07T01:58:13;102669.19;;;14.32;64.50
48517;BME280;34310;51.904;4.256;2024-03-07T02:00:44;102670.22;;;14.34;64.78
48517;BME280;34310;51.904;4.256;2024-03-07T02:03:12;102665.53;;;14.40;64.70
48517;BME280;34310;51.904;4.256;2024-03-07T02:05:39;102668.06;;;14.49;64.54
48517;BME280;34310;51.904;4.256;2024-03-07T02:08:06;102667.25;;;14.60;64.45
48517;BME280;34310;51.904;4.256;2024-03-07T02:10:32;102657.72;;;14.71;64.19
48517;BME280;34310;51.904;4.256;2024-03-07T02:12:59;102660.72;;;14.85;63.75
48517;BME280;34310;51.904;4.256;2024-03-07T02:15:26;102660.66;;;14.96;63.23
48517;BME280;34310;51.904;4.256;2024-03-07T02:17:53;102645.84;;;15.05;63.13
48517;BME280;34310;51.904;4.256;2024-03-07T02:20:19;102644.88;;;15.14;62.72
48517;BME280;34310;51.904;4.256;2024-03-07T02:22:46;102657.72;;;15.23;62.38
48517;BME280;34310;51.904;4.256;2024-03-07T02:25:13;102641.56;;;15.27;62.24
48517;BME280;34310;51.904;4.256;2024-03-07T02:27:39;102636.88;;;15.33;62.12
48517;BME280;34310;51.904;4.256;2024-03-07T02:30:06;102645.03;;;15.38;61.94
48517;BME280;34310;51.904;4.256;2024-03-07T02:32:33;102643.59;;;15.41;61.63
48517;BME280;34310;51.904;4.256;2024-03-07T02:34:59;102650.63;;;15.42;61.61
48517;BME280;34310;51.904;4.256;2024-03-07T02:37:26;102639.41;;;15.43;61.67
48517;BME280;34310;51.904;4.256;2024-03-07T02:39:52;102643.84;;;15.44;61.46
48517;BME280;34310;51.904;4.256;2024-03-07T02:42:19;102647.47;;;15.46;61.38
48517;BME280;34310;51.904;4.256;2024-03-07T02:44:46;102640.44;;;15.45;61.36
48517;BME280;34310;51.904;4.256;2024-03-07T02:47:12;102634.22;;;15.43;61.47
48517;BME280;34310;51.904;4.256;2024-03-07T02:49:39;102631.59;;;15.43;61.36
48517;BME280;34310;51.904;4.256;2024-03-07T02:52:06;102630.56;;;15.41;61.40
48517;BME280;34310;51.904;4.256;2024-03-07T02:54:32;102630.47;;;15.40;61.48
48517;BME280;34310;51.904;4.256;2024-03-07T02:56:59;102620.84;;;15.39;61.51
48517;BME280;34310;51.904;4.256;2024-03-07T02:59:26;102626.81;;;15.38;61.71
48517;BME280;34310;51.904;4.256;2024-03-07T03:01:52;102627.50;;;15.35;61.63
48517;BME280;34310;51.904;4.256;2024-03-07T03:04:19;102618.25;;;15.29;61.59
48517;BME280;34310;51.904;4.256;2024-03-07T03:06:45;102621.88;;;15.31;61.66
48517;BME280;34310;51.904;4.256;2024-03-07T03:09:12;102617.22;;;15.27;61.69
48517;BME280;34310;51.904;4.256;2024-03-07T03:11:39;102620.50;;;15.24;61.75
48517;BME280;34310;51.904;4.256;2024-03-07T03:14:05;102617.78;;;15.23;61.66
48517;BME280;34310;51.904;4.256;2024-03-07T03:16:32;102622.84;;;15.21;61.82
48517;BME280;34310;51.904;4.256;2024-03-07T03:19:13;102613.00;;;15.17;62.04
48517;BME280;34310;51.904;4.256;2024-03-07T03:21:40;102617.28;;;15.16;61.98
48517;BME280;34310;51.904;4.256;2024-03-07T03:24:06;102620.56;;;15.14;62.13
48517;BME280;34310;51.904;4.256;2024-03-07T03:26:33;102612.38;;;15.09;62.00
48517;BME280;34310;51.904;4.256;2024-03-07T03:29:00;102619.41;;;15.10;62.25
48517;BME280;34310;51.904;4.256;2024-03-07T03:31:26;102608.75;;;15.07;62.17
48517;BME280;34310;51.904;4.256;2024-03-07T03:33:53;102605.13;;;15.05;62.27
48517;BME280;34310;51.904;4.256;2024-03-07T03:36:20;102610.22;;;15.04;62.28
48517;BME280;34310;51.904;4.256;2024-03-07T03:38:46;102603.03;;;15.01;62.45
48517;BME280;34310;51.904;4.256;2024-03-07T03:41:16;102597.59;;;14.98;62.30
48517;BME280;34310;51.904;4.256;2024-03-07T03:43:43;102605.13;;;14.95;62.32
48517;BME280;34310;51.904;4.256;2024-03-07T03:46:10;102597.22;;;14.94;62.37
48517;BME280;34310;51.904;4.256;2024-03-07T03:48:40;102604.00;;;14.92;62.42
48517;BME280;34310;51.904;4.256;2024-03-07T03:51:08;102597.75;;;14.90;62.39
48517;BME280;34310;51.904;4.256;2024-03-07T03:53:35;102596.47;;;14.84;62.54
48517;BME280;34310;51.904;4.256;2024-03-07T03:56:03;102606.09;;;14.85;62.28
48517;BME280;34310;51.904;4.256;2024-03-07T03:58:30;102589.34;;;14.82;62.47
48517;BME280;34310;51.904;4.256;2024-03-07T04:00:57;102601.31;;;14.80;62.49
48517;BME280;34310;51.904;4.256;2024-03-07T04:03:24;102599.50;;;14.79;62.61
48517;BME280;34310;51.904;4.256;2024-03-07T04:05:51;102597.69;;;14.78;62.70
48517;BME280;34310;51.904;4.256;2024-03-07T04:08:17;102591.28;;;14.74;62.51
48517;BME280;34310;51.904;4.256;2024-03-07T04:10:44;102593.88;;;14.74;62.65
48517;BME280;34310;51.904;4.256;2024-03-07T04:13:11;102591.94;;;14.72;62.76
48517;BME280;34310;51.904;4.256;2024-03-07T04:15:37;102593.53;;;14.70;62.64
48517;BME280;34310;51.904;4.256;2024-03-07T04:18:06;102594.19;;;14.67;62.66
48517;BME280;34310;51.904;4.256;2024-03-07T04:20:33;102591.47;;;14.66;62.74
48517;BME280;34310;51.904;4.256;2024-03-07T04:22:59;102598.72;;;14.70;63.16
48517;BME280;34310;51.904;4.256;2024-03-07T04:25:26;102592.06;;;14.73;63.39
48517;BME280;34310;51.904;4.256;2024-03-07T04:27:52;102581.16;;;14.77;63.06
48517;BME280;34310;51.904;4.256;2024-03-07T04:30:19;102592.00;;;14.94;62.76
48517;BME280;34310;51.904;4.256;2024-03-07T04:32:46;102590.31;;;15.04;62.66
48517;BME280;34310;51.904;4.256;2024-03-07T04:35:12;102595.94;;;15.21;62.10
48517;BME280;34310;51.904;4.256;2024-03-07T04:37:43;102588.84;;;15.30;61.83
48517;BME280;34310;51.904;4.256;2024-03-07T04:40:10;102592.31;;;15.40;61.42
48517;BME280;34310;51.904;4.256;2024-03-07T04:42:37;102595.63;;;15.49;61.15
48517;BME280;34310;51.904;4.256;2024-03-07T04:45:03;102596.91;;;15.55;60.93
48517;BME280;34310;51.904;4.256;2024-03-07T04:47:30;102593.00;;;15.60;60.84
48517;BME280;34310;51.904;4.256;2024-03-07T04:49:57;102585.56;;;15.64;60.54
48517;BME280;34310;51.904;4.256;2024-03-07T04:52:23;102592.03;;;15.69;60.53
48517;BME280;34310;51.904;4.256;2024-03-07T04:54:50;102587.97;;;15.73;60.38
48517;BME280;34310;51.904;4.256;2024-03-07T04:57:16;102591.59;;;15.75;60.28
48517;BME280;34310;51.904;4.256;2024-03-07T04:59:43;102589.91;;;15.75;60.42
48517;BME280;34310;51.904;4.256;2024-03-07T05:02:10;102582.22;;;15.77;60.11
48517;BME280;34310;51.904;4.256;2024-03-07T05:04:36;102581.41;;;15.78;60.14
48517;BME280;34310;51.904;4.256;2024-03-07T05:07:03;102578.03;;;15.79;60.17
48517;BME280;34310;51.904;4.256;2024-03-07T05:09:30;102575.41;;;15.79;60.17
48517;BME280;34310;51.904;4.256;2024-03-07T05:11:56;102568.41;;;15.78;60.06
48517;BME280;34310;51.904;4.256;2024-03-07T05:14:23;102571.78;;;15.77;60.01
48517;BME280;34310;51.904;4.256;2024-03-07T05:16:49;102574.41;;;15.77;59.94
48517;BME280;34310;51.904;4.256;2024-03-07T05:19:16;102570.66;;;15.73;60.16
48517;BME280;34310;51.904;4.256;2024-03-07T05:21:43;102576.78;;;15.74;60.03
48517;BME280;34310;51.904;4.256;2024-03-07T05:24:09;102569.63;;;15.71;60.15
48517;BME280;34310;51.904;4.256;2024-03-07T05:26:36;102581.50;;;15.68;60.24
48517;BME280;34310;51.904;4.256;2024-03-07T05:29:04;102577.75;;;15.64;60.08
48517;BME280;34310;51.904;4.256;2024-03-07T05:31:31;102576.06;;;15.65;60.18
48517;BME280;34310;51.904;4.256;2024-03-07T05:33:58;102575.94;;;15.63;60.12
48517;BME280;34310;51.904;4.256;2024-03-07T05:36:24;102572.16;;;15.60;60.32
48517;BME280;34310;51.904;4.256;2024-03-07T05:38:51;102563.84;;;15.54;60.23
48517;BME280;34310;51.904;4.256;2024-03-07T05:41:17;102573.34;;;15.53;60.41
48517;BME280;34310;51.904;4.256;2024-03-07T05:43:44;102578.44;;;15.52;60.41
48517;BME280;34310;51.904;4.256;2024-03-07T05:46:11;102569.25;;;15.45;60.55
48517;BME280;34310;51.904;4.256;2024-03-07T05:48:37;102577.06;;;15.45;60.58
48517;BME280;34310;51.904;4.256;2024-03-07T05:51:04;102578.41;;;15.40;60.65
48517;BME280;34310;51.904;4.256;2024-03-07T05:53:30;102574.53;;;15.35;60.57
48517;BME280;34310;51.904;4.256;2024-03-07T05:55:57;102571.94;;;15.35;60.89
48517;BME280;34310;51.904;4.256;2024-03-07T05:58:24;102571.81;;;15.33;61.07
48517;BME280;34310;51.904;4.256;2024-03-07T06:00:50;102574.81;;;15.28;61.07
48517;BME280;34310;51.904;4.256;2024-03-07T06:03:18;102570.28;;;15.25;61.09
48517;BME280;34310;51.904;4.256;2024-03-07T06:05:45;102574.31;;;15.22;61.12
48517;BME280;34310;51.904;4.256;2024-03-07T06:08:12;102580.44;;;15.22;61.18
48517;BME280;34310;51.904;4.256;2024-03-07T06:10:38;102574.75;;;15.16;61.40
48517;BME280;34310;51.904;4.256;2024-03-07T06:13:05;102577.34;;;15.16;61.44
48517;BME280;34310;51.904;4.256;2024-03-07T06:15:39;102572.44;;;15.09;61.23
48517;BME280;34310;51.904;4.256;2024-03-07T06:18:06;102569.84;;;15.09;61.50
48517;BME280;34310;51.904;4.256;2024-03-07T06:20:34;102566.72;;;15.03;61.60
48517;BME280;34310;51.904;4.256;2024-03-07T06:23:01;102575.44;;;15.03;61.51
48517;BME280;34310;51.904;4.256;2024-03-07T06:25:27;102573.50;;;15.01;61.54
48517;BME280;34310;51.904;4.256;2024-03-07T06:27:54;102566.38;;;14.98;61.69
48517;BME280;34310;51.904;4.256;2024-03-07T06:30:20;102574.06;;;14.97;61.76
48517;BME280;34310;51.904;4.256;2024-03-07T06:32:47;102573.03;;;14.95;61.71
48517;BME280;34310;51.904;4.256;2024-03-07T06:35:14;102564.84;;;14.90;61.89
48517;BME280;34310;51.904;4.256;2024-03-07T06:37:40;102568.91;;;14.86;61.88
48517;BME280;34310;51.904;4.256;2024-03-07T06:40:07;102561.75;;;14.84;61.84
48517;BME280;34310;51.904;4.256;2024-03-07T06:42:35;102564.25;;;14.82;61.86
48517;BME280;34310;51.904;4.256;2024-03-07T06:45:04;102572.03;;;14.82;62.37
48517;BME280;34310;51.904;4.256;2024-03-07T06:47:31;102573.56;;;14.91;62.47
48517;BME280;34310;51.904;4.256;2024-03-07T06:49:57;102574.28;;;15.00;62.18
48517;BME280;34310;51.904;4.256;2024-03-07T06:52:24;102570.69;;;15.19;61.86
48517;BME280;34310;51.904;4.256;2024-03-07T06:54:51;102566.66;;;15.45;61.01
48517;BME280;34310;51.904;4.256;2024-03-07T06:57:17;102573.56;;;15.66;60.56
48517;BME280;34310;51.904;4.256;2024-03-07T06:59:44;102572.03;;;15.80;60.22
48517;BME280;34310;51.904;4.256;2024-03-07T07:02:10;102580.25;;;15.96;59.86
48517;BME280;34310;51.904;4.256;2024-03-07T07:04:37;102574.16;;;16.07;59.52
48517;BME280;34310;51.904;4.256;2024-03-07T07:07:03;102571.19;;;16.15;59.17
48517;BME280;34310;51.904;4.256;2024-03-07T07:09:30;102575.31;;;16.23;58.92
48517;BME280;34310;51.904;4.256;2024-03-07T07:11:57;102570.56;;;16.29;58.76
48517;BME280;34310;51.904;4.256;2024-03-07T07:14:23;102580.41;;;16.33;58.82
48517;BME280;34310;51.904;4.256;2024-03-07T07:16:50;102574.53;;;16.35;58.61
48517;BME280;34310;51.904;4.256;2024-03-07T07:19:17;102572.94;;;16.37;58.57
48517;BME280;34310;51.904;4.256;2024-03-07T07:21:43;102573.06;;;16.39;58.63
48517;BME280;34310;51.904;4.256;2024-03-07T07:24:10;102569.53;;;16.38;58.62
48517;BME280;34310;51.904;4.256;2024-03-07T07:26:36;102569.53;;;16.38;58.51
48517;BME280;34310;51.904;4.256;2024-03-07T07:29:03;102574.06;;;16.41;58.72
48517;BME280;34310;51.904;4.256;2024-03-07T07:31:30;102562.41;;;16.36;58.63
48517;BME280;34310;51.904;4.256;2024-03-07T07:33:56;102560.59;;;16.35;58.01
48517;BME280;34310;51.904;4.256;2024-03-07T07:36:23;102564.22;;;16.25;56.80
48517;BME280;34310;51.904;4.256;2024-03-07T07:38:52;102569.63;;;16.17;57.50
48517;BME280;34310;51.904;4.256;2024-03-07T07:41:19;102568.81;;;16.06;58.07
48517;BME280;34310;51.904;4.256;2024-03-07T07:43:46;102565.63;;;15.98;58.76
48517;BME280;34310;51.904;4.256;2024-03-07T07:46:12;102563.47;;;15.93;59.10
48517;BME280;34310;51.904;4.256;2024-03-07T07:48:39;102557.53;;;15.84;59.20
48517;BME280;34310;51.904;4.256;2024-03-07T07:51:06;102561.72;;;15.82;59.52
48517;BME280;34310;51.904;4.256;2024-03-07T07:53:34;102563.41;;;15.81;59.53
48517;BME280;34310;51.904;4.256;2024-03-07T07:56:01;102563.97;;;15.77;59.63
48517;BME280;34310;51.904;4.256;2024-03-07T07:58:28;102558.66;;;15.75;60.06
48517;BME280;34310;51.904;4.256;2024-03-07T08:00:54;102555.81;;;15.72;59.85
48517;BME280;34310;51.904;4.256;2024-03-07T08:03:21;102556.59;;;15.71;60.19
48517;BME280;34310;51.904;4.256;2024-03-07T08:05:47;102558.97;;;15.68;60.23
48517;BME280;34310;51.904;4.256;2024-03-07T08:08:14;102555.34;;;15.66;60.13
48517;BME280;34310;51.904;4.256;2024-03-07T08:10:41;102551.72;;;15.64;60.21
48517;BME280;34310;51.904;4.256;2024-03-07T08:13:11;102553.31;;;15.62;60.50
48517;BME280;34310;51.904;4.256;2024-03-07T08:15:37;102552.25;;;15.60;60.35
48517;BME280;34310;51.904;4.256;2024-03-07T08:18:04;102548.47;;;15.57;60.63
48517;BME280;34310;51.904;4.256;2024-03-07T08:20:31;102554.47;;;15.56;60.62
48517;BME280;34310;51.904;4.256;2024-03-07T08:22:58;102555.13;;;15.53;60.63
48517;BME280;34310;51.904;4.256;2024-03-07T08:25:27;102547.88;;;15.49;60.74
48517;BME280;34310;51.904;4.256;2024-03-07T08:27:54;102551.38;;;15.49;60.89
48517;BME280;34310;51.904;4.256;2024-03-07T08:30:22;102548.53;;;15.46;60.91
48517;BME280;34310;51.904;4.256;2024-03-07T08:32:54;102549.22;;;15.44;60.95
48517;BME280;34310;51.904;4.256;2024-03-07T08:35:22;102544.81;;;15.43;60.97
48517;BME280;34310;51.904;4.256;2024-03-07T08:37:50;102549.88;;;15.41;61.14
48517;BME280;34310;51.904;4.256;2024-03-07T08:40:17;102546.25;;;15.39;61.04
48517;BME280;34310;51.904;4.256;2024-03-07T08:42:43;102548.06;;;15.40;61.13
48517;BME280;34310;51.904;4.256;2024-03-07T08:45:10;102550.78;;;15.42;61.00
48517;BME280;34310;51.904;4.256;2024-03-07T08:47:37;102538.22;;;15.36;61.12
48517;BME280;34310;51.904;4.256;2024-03-07T08:50:05;102540.94;;;15.38;61.21
48517;BME280;34310;51.904;4.256;2024-03-07T08:52:31;102538.22;;;15.36;61.15
48517;BME280;34310;51.904;4.256;2024-03-07T08:54:58;102534.72;;;15.36;61.12
48517;BME280;34310;51.904;4.256;2024-03-07T08:57:25;102536.41;;;15.35;61.13
48517;BME280;34310;51.904;4.256;2024-03-07T08:59:51;102531.88;;;15.33;61.19
48517;BME280;34310;51.904;4.256;2024-03-07T09:02:18;102530.81;;;15.31;61.34
48517;BME280;34310;51.904;4.256;2024-03-07T09:04:45;102531.72;;;15.31;61.23
48517;BME280;34310;51.904;4.256;2024-03-07T09:07:12;102525.38;;;15.28;61.28
48517;BME280;34310;51.904;4.256;2024-03-07T09:09:40;102523.78;;;15.30;61.59
48517;BME280;34310;51.904;4.256;2024-03-07T09:12:07;102521.84;;;15.27;61.57
48517;BME280;34310;51.904;4.256;2024-03-07T09:14:34;102516.41;;;15.24;61.62
48517;BME280;34310;51.904;4.256;2024-03-07T09:17:01;102524.47;;;15.27;61.70
48517;BME280;34310;51.904;4.256;2024-03-07T09:19:28;102521.75;;;15.26;61.75
48517;BME280;34310;51.904;4.256;2024-03-07T09:21:54;102513.81;;;15.24;61.47
48517;BME280;34310;51.904;4.256;2024-03-07T09:24:21;102520.72;;;15.24;61.72
48517;BME280;34310;51.904;4.256;2024-03-07T09:26:49;102522.41;;;15.23;61.83
48517;BME280;34310;51.904;4.256;2024-03-07T09:29:16;102522.41;;;15.23;61.68
48517;BME280;34310;51.904;4.256;2024-03-07T09:31:43;102515.50;;;15.24;61.75
48517;BME280;34310;51.904;4.256;2024-03-07T09:34:10;102512.00;;;15.23;61.68
48517;BME280;34310;51.904;4.256;2024-03-07T09:36:37;102509.41;;;15.23;62.02
48517;BME280;34310;51.904;4.256;2024-03-07T09:39:03;102512.91;;;15.24;61.77
48517;BME280;34310;51.904;4.256;2024-03-07T09:41:30;102506.78;;;15.23;61.94
48517;BME280;34310;51.904;4.256;2024-03-07T09:43:57;102513.56;;;15.21;61.78
48517;BME280;34310;51.904;4.256;2024-03-07T09:46:25;102506.78;;;15.23;61.93
48517;BME280;34310;51.904;4.256;2024-03-07T09:48:53;102500.44;;;15.19;61.91
48517;BME280;34310;51.904;4.256;2024-03-07T09:51:20;102510.31;;;15.24;61.96
48517;BME280;34310;51.904;4.256;2024-03-07T09:53:49;102500.56;;;15.21;61.83
48517;BME280;34310;51.904;4.256;2024-03-07T09:56:18;102500.81;;;15.24;61.83
48517;BME280;34310;51.904;4.256;2024-03-07T09:58:50;102502.50;;;15.24;61.92
48517;BME280;34310;51.904;4.256;2024-03-07T10:01:20;102500.81;;;15.24;61.81
48517;BME280;34310;51.904;4.256;2024-03-07T10:03:48;102500.69;;;15.23;61.99
48517;BME280;34310;51.904;4.256;2024-03-07T10:06:16;102499.91;;;15.24;61.97
48517;BME280;34310;51.904;4.256;2024-03-07T10:08:43;102488.34;;;15.20;62.10
48517;BME280;34310;51.904;4.256;2024-03-07T10:11:10;102490.28;;;15.23;61.89
48517;BME280;34310;51.904;4.256;2024-03-07T10:13:37;102502.63;;;15.25;62.06
48517;BME280;34310;51.904;4.256;2024-03-07T10:16:04;102492.09;;;15.24;61.91
48517;BME280;34310;51.904;4.256;2024-03-07T10:18:31;102494.81;;;15.25;61.89
48517;BME280;34310;51.904;4.256;2024-03-07T10:20:58;102494.13;;;15.28;61.92
48517;BME280;34310;51.904;4.256;2024-03-07T10:23:26;102488.94;;;15.28;61.93
48517;BME280;34310;51.904;4.256;2024-03-07T10:25:52;102485.66;;;15.30;61.71
48517;BME280;34310;51.904;4.256;2024-03-07T10:28:19;102486.22;;;15.26;61.78
48517;BME280;34310;51.904;4.256;2024-03-07T10:30:46;102490.88;;;15.30;61.78
48517;BME280;34310;51.904;4.256;2024-03-07T10:33:13;102485.66;;;15.30;61.85
48517;BME280;34310;51.904;4.256;2024-03-07T10:35:39;102481.25;;;15.29;61.58
48517;BME280;34310;51.904;4.256;2024-03-07T10:38:06;102476.28;;;15.32;61.94
48517;BME280;34310;51.904;4.256;2024-03-07T10:40:34;102473.56;;;15.31;61.89
48517;BME280;34310;51.904;4.256;2024-03-07T10:43:01;102472.91;;;15.33;61.66
48517;BME280;34310;51.904;4.256;2024-03-07T10:45:30;102473.81;;;15.34;61.81
48517;BME280;34310;51.904;4.256;2024-03-07T10:48:00;102469.53;;;15.34;61.70
48517;BME280;34310;51.904;4.256;2024-03-07T10:50:47;102467.84;;;15.35;61.86
48517;BME280;34310;51.904;4.256;2024-03-07T10:53:52;102468.84;;;15.37;61.82
48517;BME280;34310;51.904;4.256;2024-03-07T10:56:33;102466.38;;;15.38;61.77
48517;BME280;34310;51.904;4.256;2024-03-07T10:59:19;102457.66;;;15.38;61.69
48517;BME280;34310;51.904;4.256;2024-03-07T11:02:03;102455.84;;;15.37;61.60
48517;BME280;34310;51.904;4.256;2024-03-07T11:04:32;102459.59;;;15.40;61.51
48517;BME280;34310;51.904;4.256;2024-03-07T11:06:59;102455.41;;;15.42;61.50
48517;BME280;34310;51.904;4.256;2024-03-07T11:09:26;102455.41;;;15.42;61.50
48517;BME280;34310;51.904;4.256;2024-03-07T11:11:53;102461.50;;;15.43;61.71
48517;BME280;34310;51.904;4.256;2024-03-07T11:14:20;102452.00;;;15.43;61.47
48517;BME280;34310;51.904;4.256;2024-03-07T11:16:47;102446.69;;;15.42;61.34
48517;BME280;34310;51.904;4.256;2024-03-07T11:19:24;102442.63;;;15.45;61.44
48517;BME280;34310;51.904;4.256;2024-03-07T11:21:51;102437.63;;;15.48;61.48
48517;BME280;34310;51.904;4.256;2024-03-07T11:24:30;102435.94;;;15.49;61.35
48517;BME280;34310;51.904;4.256;2024-03-07T11:26:57;102433.56;;;15.52;61.48
48517;BME280;34310;51.904;4.256;2024-03-07T11:32:06;102426.66;;;15.53;61.29
48517;BME280;34310;51.904;4.256;2024-03-07T11:34:37;102425.09;;;15.55;61.21
48517;BME280;34310;51.904;4.256;2024-03-07T11:37:04;102418.28;;;15.57;61.32
48517;BME280;34310;51.904;4.256;2024-03-07T11:39:47;102403.13;;;15.51;61.56
48517;BME280;34310;51.904;4.256;2024-03-07T11:42:26;102409.56;;;15.56;61.08
48517;BME280;34310;51.904;4.256;2024-03-07T11:44:53;102408.78;;;15.57;61.13
48517;BME280;34310;51.904;4.256;2024-03-07T11:47:20;102413.34;;;15.60;61.21
48517;BME280;34310;51.904;4.256;2024-03-07T11:49:47;102397.88;;;15.61;61.12
48517;BME280;34310;51.904;4.256;2024-03-07T11:52:16;102396.41;;;15.65;61.14
48517;BME280;34310;51.904;4.256;2024-03-07T11:54:43;102392.00;;;15.64;60.95
48517;BME280;34310;51.904;4.256;2024-03-07T11:57:10;102392.09;;;15.65;61.04
48517;BME280;34310;51.904;4.256;2024-03-07T11:59:37;102384.53;;;15.68;61.08
48517;BME280;34310;51.904;4.256;2024-03-07T12:02:03;102385.53;;;15.70;60.73
48517;BME280;34310;51.904;4.256;2024-03-07T12:04:30;102384.75;;;15.71;60.93
48517;BME280;34310;51.904;4.256;2024-03-07T12:06:57;102383.16;;;15.73;60.90
48517;BME280;34310;51.904;4.256;2024-03-07T12:09:23;102374.56;;;15.74;60.81
48517;BME280;34310;51.904;4.256;2024-03-07T12:11:50;102370.25;;;15.75;60.84
48517;BME280;34310;51.904;4.256;2024-03-07T12:14:17;102368.66;;;15.77;60.79
48517;BME280;34310;51.904;4.256;2024-03-07T12:16:43;102362.66;;;15.78;60.78
48517;BME280;34310;51.904;4.256;2024-03-07T12:19:10;102353.25;;;15.80;60.79
48517;BME280;34310;51.904;4.256;2024-03-07T12:21:37;102352.34;;;15.79;60.75
48517;BME280;34310;51.904;4.256;2024-03-07T12:24:13;102335.94;;;15.80;60.55
48517;BME280;34310;51.904;4.256;2024-03-07T12:26:40;102337.97;;;15.85;60.75
48517;BME280;34310;51.904;4.256;2024-03-07T12:29:08;102333.66;;;15.85;60.60
48517;BME280;34310;51.904;4.256;2024-03-07T12:31:35;102334.69;;;15.87;60.56
48517;BME280;34310;51.904;4.256;2024-03-07T12:34:02;102326.88;;;15.87;60.52
48517;BME280;34310;51.904;4.256;2024-03-07T12:36:28;102331.41;;;15.90;60.80
48517;BME280;34310;51.904;4.256;2024-03-07T12:38:55;102321.13;;;15.91;60.34
48517;BME280;34310;51.904;4.256;2024-03-07T12:41:22;102318.63;;;15.93;60.38
48517;BME280;34310;51.904;4.256;2024-03-07T12:43:49;102317.94;;;15.95;60.55
48517;BME280;34310;51.904;4.256;2024-03-07T12:46:17;102313.41;;;15.93;60.50
48517;BME280;34310;51.904;4.256;2024-03-07T12:48:44;102302.31;;;15.95;60.53
48517;BME280;34310;51.904;4.256;2024-03-07T12:51:11;102307.72;;;15.98;60.43
48517;BME280;34310;51.904;4.256;2024-03-07T12:53:37;102298.31;;;16.00;60.42